Time;durP1;ratioP1;P1;durP2;ratioP2;P2;SDS_P1;SDS_P2;PMS_P1;PMS_P2;Temp;Humidity;BMP_temperature;BMP_pressure;BME280_temperature;BME280_humidity;BME280_pressure;Samples;Min_cycle;Max_cycle;Signal;HPM_P1;HPM_P2
2022/10/25 00:01:24;;;;;;;1.77;1.02;;;19.90;65.20;;;;;;5086015;27;43866;-59
2022/10/25 00:03:54;;;;;;;2.17;1.25;;;19.90;65.20;;;;;;5093814;27;43465;-59
2022/10/25 00:06:22;;;;;;;1.70;1.30;;;19.90;65.20;;;;;;5085978;27;43442;-60
2022/10/25 00:08:49;;;;;;;1.58;1.10;;;19.90;65.20;;;;;;5086032;27;43369;-59
2022/10/25 00:11:25;;;;;;;1.52;1.15;;;19.90;65.30;;;;;;5087729;27;44060;-59
2022/10/25 00:13:55;;;;;;;2.35;1.30;;;19.90;65.20;;;;;;5092299;27;44007;-60
2022/10/25 00:16:27;;;;;;;2.30;1.30;;;19.90;65.20;;;;;;5089308;27;44081;-59
2022/10/25 00:18:54;;;;;;;1.17;0.98;;;19.90;65.30;;;;;;5088936;27;43561;-59
2022/10/25 00:21:23;;;;;;;1.70;1.05;;;19.90;65.20;;;;;;5089132;27;44784;-60
2022/10/25 00:23:51;;;;;;;2.88;1.40;;;19.90;65.20;;;;;;5092658;27;43293;-59
2022/10/25 00:26:19;;;;;;;2.28;1.10;;;19.90;65.30;;;;;;5097730;27;43463;-60
2022/10/25 00:28:46;;;;;;;1.20;1.10;;;19.90;65.30;;;;;;5089182;27;43514;-59
2022/10/25 00:31:16;;;;;;;1.83;1.10;;;19.90;65.30;;;;;;5089602;27;45050;-59
2022/10/25 00:33:44;;;;;;;2.83;1.38;;;19.90;65.30;;;;;;5088282;27;43704;-59
2022/10/25 00:36:14;;;;;;;2.15;1.20;;;19.80;65.30;;;;;;5089169;27;43444;-60
2022/10/25 00:38:44;;;;;;;3.08;1.30;;;19.80;65.20;;;;;;5088379;27;43509;-59
2022/10/25 00:41:17;;;;;;;1.50;1.05;;;19.80;65.20;;;;;;5098277;27;45341;-59
2022/10/25 00:43:51;;;;;;;1.00;0.90;;;19.80;65.20;;;;;;5095313;27;43470;-60
2022/10/25 00:46:19;;;;;;;1.98;1.20;;;19.80;65.30;;;;;;5087949;27;43399;-60
2022/10/25 00:48:56;;;;;;;2.78;1.20;;;19.80;65.30;;;;;;5088828;27;43420;-59
2022/10/25 00:51:39;;;;;;;1.65;1.08;;;19.80;65.30;;;;;;5089295;27;44062;-60
2022/10/25 00:54:10;;;;;;;1.30;1.20;;;19.80;65.30;;;;;;5109333;27;44155;-59
2022/10/25 00:56:40;;;;;;;2.17;1.10;;;19.80;65.30;;;;;;5110606;27;43493;-59
2022/10/25 00:59:10;;;;;;;1.73;1.10;;;19.80;65.30;;;;;;5118037;27;43446;-59
2022/10/25 01:01:38;;;;;;;1.70;1.20;;;19.80;65.30;;;;;;5121215;27;43781;-60
2022/10/25 01:04:10;;;;;;;1.48;1.17;;;19.80;65.30;;;;;;5087397;27;43455;-59
2022/10/25 01:06:41;;;;;;;2.60;1.15;;;19.80;65.30;;;;;;5108391;27;44168;-59
2022/10/25 01:09:10;;;;;;;2.25;1.10;;;19.80;65.30;;;;;;5091305;27;43542;-59
2022/10/25 01:11:38;;;;;;;1.52;1.02;;;19.80;65.20;;;;;;5108507;27;44922;-60
2022/10/25 01:14:08;;;;;;;1.90;1.30;;;19.80;65.30;;;;;;5108516;27;43982;-59
2022/10/25 01:16:47;;;;;;;1.30;1.05;;;19.80;65.30;;;;;;5121300;27;43412;-59
2022/10/25 01:19:52;;;;;;;3.47;1.30;;;19.80;65.30;;;;;;5122677;27;43676;-59
2022/10/25 01:22:33;;;;;;;1.92;1.13;;;19.80;65.30;;;;;;5107224;27;44652;-59
2022/10/25 01:25:18;;;;;;;1.85;1.08;;;19.80;65.30;;;;;;5109300;27;43442;-60
2022/10/25 01:28:13;;;;;;;1.58;1.23;;;19.80;65.30;;;;;;5107761;27;43406;-60
2022/10/25 01:31:15;;;;;;;1.40;1.30;;;19.70;65.30;;;;;;5112414;27;43445;-60
2022/10/25 01:33:54;;;;;;;2.33;1.30;;;19.70;65.30;;;;;;5113027;27;44170;-59
2022/10/25 01:36:36;;;;;;;1.35;1.10;;;19.70;65.30;;;;;;5109323;27;43515;-60
2022/10/25 01:39:19;;;;;;;2.65;1.58;;;19.70;65.30;;;;;;5118179;27;43617;-60
2022/10/25 01:41:46;;;;;;;1.63;1.10;;;19.70;65.40;;;;;;5108957;27;43473;-59
2022/10/25 01:44:43;;;;;;;1.08;0.95;;;19.70;65.30;;;;;;5111866;27;43877;-59
2022/10/25 01:47:20;;;;;;;2.17;1.38;;;19.70;65.30;;;;;;5115462;27;43818;-60
2022/10/25 01:49:52;;;;;;;1.88;1.10;;;19.70;65.30;;;;;;5107791;27;43385;-60
2022/10/25 01:52:21;;;;;;;1.20;1.10;;;19.70;65.30;;;;;;5114131;27;43573;-60
2022/10/25 01:54:49;;;;;;;1.60;1.20;;;19.70;65.30;;;;;;5117460;27;43769;-60
2022/10/25 01:57:47;;;;;;;1.05;0.95;;;19.70;65.30;;;;;;5107132;27;44023;-60
2022/10/25 02:00:17;;;;;;;1.38;1.20;;;19.70;65.30;;;;;;5108861;27;43411;-59
2022/10/25 02:03:00;;;;;;;2.22;1.30;;;19.70;65.30;;;;;;5108325;27;43597;-60
2022/10/25 02:05:27;;;;;;;2.88;1.27;;;19.70;65.30;;;;;;5110061;27;44159;-60
2022/10/25 02:08:03;;;;;;;1.10;1.00;;;19.70;65.30;;;;;;5120892;27;43509;-60
2022/10/25 02:10:39;;;;;;;2.88;1.65;;;19.70;65.40;;;;;;5108556;27;43381;-59
2022/10/25 02:13:35;;;;;;;2.65;1.48;;;19.70;65.40;;;;;;5117045;27;43529;-60
2022/10/25 02:16:19;;;;;;;1.52;1.25;;;19.70;65.30;;;;;;5108651;27;44661;-59
2022/10/25 02:18:52;;;;;;;1.77;1.52;;;19.70;65.30;;;;;;5107119;27;43446;-59
2022/10/25 02:21:21;;;;;;;1.98;1.17;;;19.70;65.30;;;;;;5108121;27;43359;-59
2022/10/25 02:23:49;;;;;;;2.15;1.40;;;19.60;65.30;;;;;;5111291;27;43694;-59
2022/10/25 02:26:18;;;;;;;1.65;1.20;;;19.60;65.30;;;;;;5115889;27;44652;-60
2022/10/25 02:28:47;;;;;;;2.40;1.40;;;19.60;65.30;;;;;;5107548;27;43983;-59
2022/10/25 02:31:17;;;;;;;1.60;1.10;;;19.60;65.30;;;;;;5120357;27;43421;-59
2022/10/25 02:33:46;;;;;;;2.17;1.42;;;19.60;65.30;;;;;;5108113;27;43491;-60
2022/10/25 02:36:18;;;;;;;1.20;1.10;;;19.60;65.30;;;;;;5088642;27;44788;-59
2022/10/25 02:38:47;;;;;;;1.48;1.10;;;19.70;65.30;;;;;;5106796;27;43462;-59
2022/10/25 02:41:15;;;;;;;1.52;1.10;;;19.60;65.30;;;;;;5116764;27;43398;-59
2022/10/25 02:43:43;;;;;;;1.27;1.10;;;19.60;65.30;;;;;;5108555;27;43512;-59
2022/10/25 02:46:14;;;;;;;2.25;1.30;;;19.70;65.30;;;;;;5106871;27;45262;-59
2022/10/25 02:48:42;;;;;;;1.73;1.40;;;19.70;65.30;;;;;;5118108;27;43969;-59
2022/10/25 02:51:11;;;;;;;2.42;1.20;;;19.60;65.20;;;;;;5121067;27;44107;-59
2022/10/25 02:53:39;;;;;;;2.25;1.50;;;19.60;65.20;;;;;;5107219;27;43624;-59
2022/10/25 02:56:18;;;;;;;3.47;1.85;;;19.60;65.20;;;;;;5107319;27;44075;-60
2022/10/25 02:58:47;;;;;;;1.80;1.20;;;19.60;65.20;;;;;;5115079;27;43445;-59
2022/10/25 03:01:16;;;;;;;1.58;1.20;;;19.60;65.30;;;;;;5107449;27;43421;-59
2022/10/25 03:03:44;;;;;;;1.58;1.20;;;19.60;65.20;;;;;;5093269;27;43641;-59
2022/10/25 03:06:13;;;;;;;2.10;1.35;;;19.60;65.30;;;;;;5114650;27;44819;-59
2022/10/25 03:08:41;;;;;;;1.77;1.10;;;19.60;65.20;;;;;;5107672;27;44004;-59
2022/10/25 03:11:10;;;;;;;1.50;1.40;;;19.60;65.30;;;;;;5091883;27;43472;-59
2022/10/25 03:13:38;;;;;;;1.70;1.10;;;19.60;65.30;;;;;;5087946;27;43648;-59
2022/10/25 03:16:05;;;;;;;1.55;1.10;;;19.60;65.30;;;;;;5106963;27;45055;-59
2022/10/25 03:18:33;;;;;;;1.30;1.20;;;19.60;65.30;;;;;;5107506;27;43394;-59
2022/10/25 03:21:02;;;;;;;2.10;1.40;;;19.60;65.30;;;;;;5109510;27;43386;-59
2022/10/25 03:23:30;;;;;;;1.58;1.17;;;19.60;65.30;;;;;;5106778;27;43427;-59
2022/10/25 03:25:59;;;;;;;2.00;1.25;;;19.60;65.30;;;;;;5106223;27;45063;-60
2022/10/25 03:28:28;;;;;;;1.38;1.10;;;19.60;65.30;;;;;;5107860;27;43850;-60
2022/10/25 03:30:56;;;;;;;2.28;1.40;;;19.60;65.40;;;;;;5109018;27;43406;-60
2022/10/25 03:33:24;;;;;;;2.50;1.55;;;19.60;65.50;;;;;;5107171;27;43490;-59
2022/10/25 03:35:53;;;;;;;2.50;1.08;;;19.60;65.30;;;;;;5105835;27;44684;-59
2022/10/25 03:38:21;;;;;;;1.83;1.15;;;19.60;65.40;;;;;;5106667;27;43984;-60
2022/10/25 03:40:48;;;;;;;2.58;1.00;;;19.60;65.40;;;;;;5104408;27;43391;-60
2022/10/25 03:43:16;;;;;;;1.30;0.90;;;19.60;65.40;;;;;;5092955;27;43432;-60
2022/10/25 03:45:44;;;;;;;1.63;1.20;;;19.60;65.40;;;;;;5108127;27;44027;-60
2022/10/25 03:48:12;;;;;;;0.98;0.85;;;19.60;65.40;;;;;;5112752;27;43421;-60
2022/10/25 03:50:40;;;;;;;1.80;1.02;;;19.60;65.50;;;;;;5111088;27;43441;-59
2022/10/25 03:53:08;;;;;;;1.42;0.88;;;19.60;65.50;;;;;;5110051;27;43552;-60
2022/10/25 03:55:36;;;;;;;1.00;0.85;;;19.60;65.40;;;;;;5108832;27;44310;-60
2022/10/25 03:58:03;;;;;;;2.78;1.10;;;19.50;65.30;;;;;;5112347;27;43987;-60
2022/10/25 04:00:30;;;;;;;1.10;1.00;;;19.50;65.40;;;;;;5126221;27;43477;-60
2022/10/25 04:03:00;;;;;;;1.90;1.30;;;19.50;65.40;;;;;;5122927;27;43639;-60
2022/10/25 04:05:30;;;;;;;1.23;0.90;;;19.50;65.40;;;;;;5111164;27;44076;-59
2022/10/25 04:07:57;;;;;;;1.95;1.13;;;19.60;65.50;;;;;;5113216;27;43967;-59
2022/10/25 04:10:25;;;;;;;1.00;0.90;;;19.50;65.40;;;;;;5091733;27;43415;-59
2022/10/25 04:12:53;;;;;;;1.00;0.85;;;19.50;65.40;;;;;;5110246;27;43424;-60
2022/10/25 04:15:22;;;;;;;2.22;1.17;;;19.50;65.50;;;;;;5109732;27;44015;-60
2022/10/25 04:17:51;;;;;;;2.40;1.42;;;19.50;65.40;;;;;;5112291;27;43455;-60
2022/10/25 04:20:19;;;;;;;1.88;1.20;;;19.50;65.30;;;;;;5109907;27;44001;-59
2022/10/25 04:22:56;;;;;;;1.75;1.10;;;19.50;65.40;;;;;;5109793;27;43577;-59
2022/10/25 04:25:26;;;;;;;2.38;1.20;;;19.50;65.40;;;;;;5109652;27;43993;-59
2022/10/25 04:27:54;;;;;;;2.53;1.10;;;19.50;65.40;;;;;;5108991;27;43488;-59
2022/10/25 04:30:21;;;;;;;1.63;0.95;;;19.50;65.50;;;;;;5109819;27;43400;-59
2022/10/25 04:32:49;;;;;;;1.33;1.00;;;19.50;65.40;;;;;;5109099;27;43557;-60
2022/10/25 04:35:17;;;;;;;2.22;1.10;;;19.50;65.50;;;;;;5110387;27;43799;-59
2022/10/25 04:37:44;;;;;;;1.10;0.90;;;19.50;65.40;;;;;;5111008;27;43449;-59
2022/10/25 04:40:12;;;;;;;1.17;1.08;;;19.50;65.40;;;;;;5108986;27;43424;-59
2022/10/25 04:42:39;;;;;;;1.30;0.90;;;19.50;65.40;;;;;;5113103;27;43632;-60
2022/10/25 04:45:07;;;;;;;1.27;1.13;;;19.50;65.50;;;;;;5110100;27;45001;-60
2022/10/25 04:47:35;;;;;;;1.85;1.10;;;19.50;65.50;;;;;;5111061;27;43841;-59
2022/10/25 04:50:03;;;;;;;0.80;0.80;;;19.50;65.50;;;;;;5109518;27;43385;-59
2022/10/25 04:52:30;;;;;;;1.58;0.90;;;19.50;65.50;;;;;;5108195;27;43641;-60
2022/10/25 04:54:58;;;;;;;1.02;0.70;;;19.50;65.50;;;;;;5109564;27;44747;-60
2022/10/25 04:57:26;;;;;;;1.35;1.00;;;19.50;65.90;;;;;;5109391;27;44091;-60
2022/10/25 04:59:55;;;;;;;1.17;1.00;;;19.50;65.50;;;;;;5113212;27;43420;-60
2022/10/25 05:02:23;;;;;;;2.20;1.42;;;19.50;65.50;;;;;;5113092;27;43592;-59
2022/10/25 05:04:50;;;;;;;2.28;1.35;;;19.50;65.50;;;;;;5118340;27;44868;-60
2022/10/25 05:07:19;;;;;;;2.17;1.00;;;19.40;65.50;;;;;;5116454;27;43426;-60
2022/10/25 05:09:47;;;;;;;1.27;0.98;;;19.40;65.50;;;;;;5108757;27;43963;-60
2022/10/25 05:12:14;;;;;;;2.13;1.15;;;19.50;65.50;;;;;;5113022;27;43553;-59
2022/10/25 05:14:42;;;;;;;2.25;1.20;;;19.50;65.60;;;;;;5120217;27;43899;-60
2022/10/25 05:17:10;;;;;;;1.33;0.88;;;19.50;65.40;;;;;;5121855;27;44023;-60
2022/10/25 05:19:37;;;;;;;1.35;1.10;;;19.50;65.50;;;;;;5107252;27;43469;-60
2022/10/25 05:22:05;;;;;;;2.38;1.00;;;19.50;65.50;;;;;;5116505;27;43428;-60
2022/10/25 05:24:32;;;;;;;1.85;1.08;;;19.40;65.40;;;;;;5121742;27;44852;-59
2022/10/25 05:27:00;;;;;;;1.67;1.00;;;19.40;65.50;;;;;;5103444;27;44055;-60
2022/10/25 05:29:27;;;;;;;2.67;1.30;;;19.50;65.40;;;;;;5109672;27;43510;-60
2022/10/25 05:31:55;;;;;;;1.13;0.98;;;19.40;66.10;;;;;;5118075;27;43577;-59
2022/10/25 05:34:22;;;;;;;1.30;0.90;;;19.40;65.50;;;;;;5121746;27;44981;-60
2022/10/25 05:36:51;;;;;;;1.02;0.70;;;19.50;65.60;;;;;;5112228;27;43426;-60
2022/10/25 05:39:18;;;;;;;1.15;1.05;;;19.50;65.50;;;;;;5115468;27;43429;-60
2022/10/25 05:41:45;;;;;;;1.00;0.82;;;19.40;65.50;;;;;;5116738;27;43576;-59
2022/10/25 05:44:15;;;;;;;1.48;0.90;;;19.40;65.60;;;;;;5121469;27;44377;-60
2022/10/25 05:46:43;;;;;;;1.27;1.00;;;19.40;65.50;;;;;;5109352;27;43478;-59
2022/10/25 05:49:11;;;;;;;1.73;0.95;;;19.40;65.50;;;;;;5110760;27;43987;-60
2022/10/25 05:51:39;;;;;;;4.43;1.10;;;19.40;65.60;;;;;;5114682;27;43573;-60
2022/10/25 05:54:10;;;;;;;1.35;0.93;;;19.40;65.60;;;;;;5122754;27;44223;-60
2022/10/25 05:56:39;;;;;;;0.82;0.82;;;19.40;65.70;;;;;;5107592;27;43472;-60
2022/10/25 05:59:12;;;;;;;1.13;0.93;;;19.40;65.60;;;;;;5119552;27;43447;-59
2022/10/25 06:01:42;;;;;;;1.33;0.90;;;19.40;65.70;;;;;;5118064;27;43574;-59
2022/10/25 06:04:10;;;;;;;1.95;1.20;;;19.40;65.70;;;;;;5120647;27;44816;-59
2022/10/25 06:06:39;;;;;;;1.38;1.10;;;19.40;65.70;;;;;;5107316;27;43493;-59
2022/10/25 06:09:07;;;;;;;2.83;1.05;;;19.40;65.60;;;;;;5112036;27;43353;-59
2022/10/25 06:11:35;;;;;;;1.40;1.05;;;19.40;65.70;;;;;;5117722;27;44628;-59
2022/10/25 06:14:04;;;;;;;1.80;0.90;;;19.40;65.60;;;;;;5122246;27;44026;-59
2022/10/25 06:16:31;;;;;;;1.08;0.90;;;19.40;65.80;;;;;;5107407;27;45447;-59
2022/10/25 06:18:59;;;;;;;0.98;0.88;;;19.40;65.70;;;;;;5115005;27;43421;-59
2022/10/25 06:21:28;;;;;;;1.45;0.90;;;19.40;65.80;;;;;;5121245;27;43560;-60
2022/10/25 06:23:57;;;;;;;1.52;0.90;;;19.40;65.70;;;;;;5121975;27;44042;-60
2022/10/25 06:26:27;;;;;;;1.35;0.90;;;19.40;65.60;;;;;;5108644;27;43951;-60
2022/10/25 06:28:57;;;;;;;2.42;1.25;;;19.40;65.60;;;;;;5116516;27;43443;-60
2022/10/25 06:31:25;;;;;;;1.52;0.93;;;19.40;65.60;;;;;;5120727;27;43529;-60
2022/10/25 06:33:53;;;;;;;0.95;0.90;;;19.40;65.60;;;;;;5108997;27;44770;-60
2022/10/25 06:36:25;;;;;;;1.35;1.00;;;19.40;65.60;;;;;;5109896;27;43968;-59
2022/10/25 06:38:53;;;;;;;0.95;0.90;;;19.40;65.60;;;;;;5119218;27;43457;-59
2022/10/25 06:41:23;;;;;;;2.45;1.10;;;19.40;65.50;;;;;;5118292;27;43576;-59
2022/10/25 06:43:51;;;;;;;1.50;1.00;;;19.40;65.60;;;;;;5107556;27;44054;-60
2022/10/25 06:46:27;;;;;;;1.50;1.02;;;19.40;65.70;;;;;;5111076;27;43554;-59
2022/10/25 06:48:56;;;;;;;2.13;1.00;;;19.40;65.60;;;;;;5120421;27;43469;-61
2022/10/25 06:51:25;;;;;;;2.55;1.40;;;19.40;65.60;;;;;;5122012;27;43888;-61
2022/10/25 06:53:54;;;;;;;1.92;1.20;;;19.40;65.60;;;;;;5108090;27;43815;-60
2022/10/25 06:56:21;;;;;;;2.78;2.03;;;19.30;65.60;;;;;;5115282;27;43422;-60
2022/10/25 06:58:49;;;;;;;3.25;1.67;;;19.40;65.70;;;;;;5119358;27;43418;-60
2022/10/25 07:01:18;;;;;;;4.78;1.80;;;19.40;65.80;;;;;;5107921;27;43636;-59
2022/10/25 07:03:49;;;;;;;3.78;1.77;;;19.40;66.00;;;;;;5114672;27;44219;-59
2022/10/25 07:06:20;;;;;;;2.00;1.80;;;19.50;65.90;;;;;;5121902;27;44110;-61
2022/10/25 07:08:52;;;;;;;1.75;1.60;;;19.50;65.90;;;;;;5112374;27;43401;-60
2022/10/25 07:11:20;;;;;;;5.05;1.80;;;19.60;65.70;;;;;;5091580;27;43607;-63
2022/10/25 07:13:48;;;;;;;2.25;1.50;;;19.60;65.60;;;;;;5117643;27;43786;-60
2022/10/25 07:16:18;;;;;;;1.70;1.40;;;19.70;65.60;;;;;;5123473;27;44073;-60
2022/10/25 07:18:46;;;;;;;2.08;1.50;;;19.70;65.40;;;;;;5112595;27;43531;-62
2022/10/25 07:21:16;;;;;;;2.22;1.60;;;19.80;65.30;;;;;;5110714;27;43636;-64
2022/10/25 07:23:44;;;;;;;3.10;1.50;;;19.90;65.20;;;;;;5096700;27;44735;-61
2022/10/25 07:26:15;;;;;;;1.88;1.25;;;20.00;65.40;;;;;;5107333;27;43460;-62
2022/10/25 07:28:44;;;;;;;1.52;1.30;;;20.00;65.20;;;;;;5110243;27;44048;-60
2022/10/25 07:31:17;;;;;;;1.80;1.38;;;20.10;65.30;;;;;;5116464;27;43466;-61
2022/10/25 07:33:44;;;;;;;1.67;1.45;;;20.20;65.10;;;;;;5103424;27;44796;-61
2022/10/25 07:36:12;;;;;;;1.83;1.40;;;20.30;65.00;;;;;;5121314;27;43427;-62
2022/10/25 07:38:39;;;;;;;2.42;1.60;;;20.50;65.00;;;;;;5109903;27;43433;-63
2022/10/25 07:41:08;;;;;;;1.60;1.30;;;20.50;64.70;;;;;;5111403;27;43358;-62
2022/10/25 07:43:35;;;;;;;2.28;1.30;;;20.70;64.90;;;;;;5117257;27;44337;-62
2022/10/25 07:46:04;;;;;;;3.85;1.40;;;20.80;64.50;;;;;;5092741;27;43517;-63
2022/10/25 07:48:32;;;;;;;2.95;1.58;;;20.90;64.40;;;;;;5109161;27;43430;-62
2022/10/25 07:51:05;;;;;;;2.95;1.42;;;21.00;64.20;;;;;;5117430;27;43531;-62
2022/10/25 07:53:32;;;;;;;2.28;1.25;;;21.10;63.90;;;;;;5110748;27;43817;-63
2022/10/25 07:56:01;;;;;;;2.28;1.30;;;21.20;64.10;;;;;;5109892;27;43435;-60
2022/10/25 07:58:29;;;;;;;1.73;1.30;;;21.40;63.80;;;;;;5114611;27;43427;-60
2022/10/25 08:01:01;;;;;;;2.65;1.20;;;21.40;63.60;;;;;;5118187;27;43553;-60
2022/10/25 08:03:30;;;;;;;2.85;1.10;;;21.50;63.70;;;;;;5116082;27;44169;-60
2022/10/25 08:05:58;;;;;;;5.10;1.30;;;21.60;63.80;;;;;;5119075;27;43569;-60
2022/10/25 08:08:26;;;;;;;2.33;1.20;;;21.70;63.80;;;;;;5115538;27;43442;-59
2022/10/25 08:10:56;;;;;;;3.72;1.30;;;21.80;63.80;;;;;;5122451;27;43600;-59
2022/10/25 08:13:23;;;;;;;2.30;1.42;;;21.90;63.40;;;;;;5121359;27;44946;-60
2022/10/25 08:15:55;;;;;;;2.00;1.30;;;22.00;63.20;;;;;;5110057;27;44002;-60
2022/10/25 08:18:23;;;;;;;3.10;1.13;;;22.10;63.80;;;;;;5116964;27;43739;-61
2022/10/25 08:20:51;;;;;;;3.47;1.67;;;22.20;62.90;;;;;;5113954;27;43498;-59
2022/10/25 08:23:33;;;;;;;3.50;1.50;;;22.30;63.20;;;;;;5091935;27;44181;-62
2022/10/25 08:26:01;;;;;;;2.17;1.13;;;22.40;62.80;;;;;;5115433;27;43501;-60
2022/10/25 08:28:32;;;;;;;1.15;1.02;;;22.50;62.50;;;;;;5119533;27;43406;-62
2022/10/25 08:30:59;;;;;;;3.10;1.23;;;22.50;62.30;;;;;;5111773;27;43577;-61
2022/10/25 08:33:28;;;;;;;1.88;1.05;;;22.60;62.30;;;;;;5097409;27;44029;-61
2022/10/25 08:35:59;;;;;;;2.20;1.40;;;22.70;62.20;;;;;;5097589;27;43809;-61
2022/10/25 08:38:27;;;;;;;2.42;1.40;;;22.80;62.10;;;;;;5090997;27;43392;-61
2022/10/25 08:41:05;;;;;;;3.55;1.40;;;22.80;61.80;;;;;;5097103;27;43454;-60
2022/10/25 08:43:52;;;;;;;2.03;1.20;;;22.90;61.70;;;;;;5118842;27;44139;-60
2022/10/25 08:46:35;;;;;;;2.33;1.38;;;22.90;61.50;;;;;;5104068;27;45172;-60
2022/10/25 08:49:16;;;;;;;1.95;1.30;;;22.90;61.40;;;;;;5113066;27;43453;-59
2022/10/25 08:51:47;;;;;;;2.80;1.52;;;22.90;61.40;;;;;;5089476;27;43407;-60
2022/10/25 08:54:31;;;;;;;2.40;1.40;;;22.90;61.40;;;;;;5116823;27;43693;-60
2022/10/25 08:57:24;;;;;;;2.05;1.27;;;23.00;61.40;;;;;;5125002;27;43459;-59
2022/10/25 09:00:09;;;;;;;3.45;1.55;;;23.00;61.30;;;;;;5093242;27;43455;-60
2022/10/25 09:02:51;;;;;;;2.58;1.35;;;23.00;61.20;;;;;;5115816;27;43907;-59
2022/10/25 09:05:36;;;;;;;2.15;1.23;;;23.00;61.10;;;;;;5115910;27;44668;-60
2022/10/25 09:08:36;;;;;;;3.15;1.30;;;23.00;61.10;;;;;;5116618;27;43823;-60
2022/10/25 09:11:53;;;;;;;3.08;1.50;;;23.00;61.20;;;;;;5115048;27;43500;-60
2022/10/25 09:14:51;;;;;;;2.72;1.30;;;22.90;61.20;;;;;;5062930;27;43498;-60
2022/10/25 09:17:28;;;;;;;3.75;1.40;;;22.90;61.30;;;;;;5081336;27;44187;-59
2022/10/25 09:20:03;;;;;;;2.22;1.50;;;22.90;61.40;;;;;;5106667;27;43465;-59
2022/10/25 09:22:47;;;;;;;3.25;1.63;;;22.80;61.50;;;;;;5119103;27;43398;-59
2022/10/25 09:25:46;;;;;;;2.58;1.30;;;22.70;61.60;;;;;;5121676;27;43456;-59
2022/10/25 09:28:20;;;;;;;3.33;1.40;;;22.70;61.80;;;;;;5034043;27;44023;-60
2022/10/25 09:30:50;;;;;;;2.03;1.40;;;22.60;61.90;;;;;;5114211;27;43416;-60
2022/10/25 09:33:22;;;;;;;2.72;1.42;;;22.50;62.00;;;;;;5101644;27;43576;-59
2022/10/25 09:35:53;;;;;;;3.00;1.40;;;22.50;62.10;;;;;;5113886;27;43572;-59
2022/10/25 09:38:40;;;;;;;3.17;1.50;;;22.40;62.20;;;;;;5095757;27;44190;-59
2022/10/25 09:41:30;;;;;;;3.67;1.27;;;22.40;62.40;;;;;;5116602;27;43707;-59
2022/10/25 09:44:15;;;;;;;3.55;1.55;;;22.30;62.50;;;;;;5120490;27;43339;-59
2022/10/25 09:46:46;;;;;;;2.85;1.38;;;22.30;62.60;;;;;;5109060;27;43401;-59
2022/10/25 09:49:33;;;;;;;;;;;22.20;62.70;;;;;;5114146;27;43811;-59
2022/10/25 09:52:32;;;;;;;2.70;1.42;;;22.20;62.80;;;;;;5121478;27;43470;-59
2022/10/25 09:55:34;;;;;;;2.53;1.40;;;22.10;63.00;;;;;;5105024;27;43416;-59
2022/10/25 09:58:01;;;;;;;3.70;1.60;;;22.10;63.10;;;;;;5116250;27;43529;-59
2022/10/25 10:00:29;;;;;;;3.15;1.40;;;22.10;63.20;;;;;;5113467;27;44129;-60
2022/10/25 10:02:57;;;;;;;5.80;1.65;;;22.10;63.30;;;;;;5117651;27;43445;-59
2022/10/25 10:05:24;;;;;;;3.22;1.15;;;22.00;64.20;;;;;;5116527;27;43469;-59
2022/10/25 10:07:53;;;;;;;3.47;1.40;;;22.00;63.50;;;;;;5112638;27;43465;-59
2022/10/25 10:10:29;;;;;;;3.47;1.30;;;22.00;63.60;;;;;;5100662;27;45833;-59
2022/10/25 10:13:03;;;;;;;2.92;1.30;;;22.00;63.80;;;;;;5113940;27;43445;-59
2022/10/25 10:15:37;;;;;;;3.17;1.52;;;22.00;63.80;;;;;;5111257;27;43384;-59
2022/10/25 10:18:21;;;;;;;3.33;1.50;;;21.90;63.70;;;;;;5114277;27;43513;-59
2022/10/25 10:20:59;;;;;;;2.65;1.63;;;21.90;63.70;;;;;;5082923;27;43921;-59
2022/10/25 10:23:30;;;;;;;3.97;2.20;;;21.90;63.70;;;;;;5114941;27;43640;-59
2022/10/25 10:26:02;;;;;;;;;;;21.90;63.80;;;;;;5102446;27;43537;-59
2022/10/25 10:28:30;;;;;;;4.72;1.60;;;21.80;63.70;;;;;;5121448;27;43410;-59
2022/10/25 10:30:58;;;;;;;3.10;1.42;;;21.80;64.00;;;;;;5109322;27;43765;-59
2022/10/25 10:33:30;;;;;;;4.63;1.63;;;21.80;63.90;;;;;;5119357;27;43428;-60
2022/10/25 10:36:19;;;;;;;3.08;1.48;;;21.80;63.80;;;;;;5100125;27;43560;-59
2022/10/25 10:38:47;;;;;;;3.95;1.60;;;21.80;63.90;;;;;;5115892;27;43587;-59
2022/10/25 10:41:27;;;;;;;2.53;1.40;;;21.80;63.90;;;;;;5096166;27;43774;-59
2022/10/25 10:44:11;;;;;;;3.67;1.45;;;21.80;63.90;;;;;;5101953;27;43518;-59
2022/10/25 10:46:44;;;;;;;4.30;1.40;;;21.80;63.80;;;;;;5099000;27;43483;-59
2022/10/25 10:49:13;;;;;;;4.53;1.65;;;21.80;63.80;;;;;;5098809;27;43646;-59
2022/10/25 10:51:44;;;;;;;2.70;1.35;;;21.80;63.90;;;;;;5114085;27;44016;-59
2022/10/25 10:54:23;;;;;;;2.33;1.20;;;21.80;63.90;;;;;;5119091;27;43504;-60
2022/10/25 10:57:00;;;;;;;3.50;1.65;;;21.80;63.90;;;;;;5114344;27;43433;-59
2022/10/25 10:59:50;;;;;;;3.22;1.55;;;21.80;64.00;;;;;;5096033;27;43869;-59
2022/10/25 11:02:18;;;;;;;1.88;1.27;;;21.80;64.10;;;;;;5112662;27;44897;-59
2022/10/25 11:04:51;;;;;;;4.20;1.55;;;21.80;64.70;;;;;;5115938;27;44211;-59
2022/10/25 11:07:33;;;;;;;3.97;1.50;;;21.80;64.00;;;;;;5114338;27;44056;-59
2022/10/25 11:10:16;;;;;;;2.78;1.40;;;21.80;64.00;;;;;;5116800;27;43621;-59
2022/10/25 11:12:43;;;;;;;3.03;1.58;;;21.80;64.00;;;;;;5112846;27;43884;-59
2022/10/25 11:15:12;;;;;;;2.72;1.60;;;21.70;63.90;;;;;;5115786;27;43415;-58
2022/10/25 11:17:51;;;;;;;4.15;1.80;;;21.70;63.80;;;;;;5115911;27;43435;-59
2022/10/25 11:20:32;;;;;;;1.50;1.35;;;21.70;63.80;;;;;;5093438;27;43649;-59
2022/10/25 11:23:05;;;;;;;1.90;1.00;;;21.70;64.00;;;;;;5114901;27;43870;-59
2022/10/25 11:25:58;;;;;;;2.40;1.33;;;21.70;64.00;;;;;;5104474;27;43380;-60
2022/10/25 11:28:53;;;;;;;3.47;1.50;;;21.70;64.10;;;;;;5083905;27;43598;-59
2022/10/25 11:31:21;;;;;;;3.00;1.30;;;21.70;64.20;;;;;;5113319;27;43384;-59
2022/10/25 11:34:28;;;;;;;3.35;1.70;;;21.70;64.20;;;;;;5120487;27;44980;-59
2022/10/25 11:37:15;;;;;;;4.10;1.70;;;21.70;64.10;;;;;;5106745;27;43420;-59
2022/10/25 11:39:42;;;;;;;3.83;1.50;;;21.70;64.20;;;;;;5094316;27;43474;-59
2022/10/25 11:42:17;;;;;;;3.90;1.45;;;21.60;64.30;;;;;;5101071;27;43455;-59
2022/10/25 11:45:00;;;;;;;3.33;1.50;;;21.60;64.40;;;;;;5117401;27;44124;-59
2022/10/25 11:47:27;;;;;;;3.85;1.50;;;21.60;64.40;;;;;;5107783;27;43433;-59
2022/10/25 11:50:13;;;;;;;2.85;1.27;;;21.50;64.40;;;;;;5098987;27;43452;-59
2022/10/25 11:53:09;;;;;;;3.08;1.40;;;21.50;64.40;;;;;;5119136;27;43553;-59
2022/10/25 11:55:56;;;;;;;4.68;1.48;;;21.50;64.40;;;;;;5110846;27;45036;-59
2022/10/25 11:58:53;;;;;;;4.00;1.50;;;21.50;64.50;;;;;;5111646;27;43480;-59
2022/10/25 12:01:40;;;;;;;4.90;1.52;;;21.40;64.50;;;;;;5114776;27;43457;-59
2022/10/25 12:04:19;;;;;;;3.38;1.30;;;21.40;64.60;;;;;;5114121;27;43483;-59
2022/10/25 12:07:03;;;;;;;2.53;1.35;;;21.40;64.60;;;;;;5107528;27;44033;-59
2022/10/25 12:09:59;;;;;;;1.50;1.20;;;21.40;64.60;;;;;;5119056;27;43406;-59
2022/10/25 12:12:52;;;;;;;2.80;1.40;;;21.40;64.60;;;;;;5123491;27;43528;-59
2022/10/25 12:15:26;;;;;;;3.72;1.23;;;21.40;64.50;;;;;;5094470;27;43675;-59
2022/10/25 12:17:53;;;;;;;2.80;1.25;;;21.40;64.50;;;;;;5077124;27;44787;-59
2022/10/25 12:20:25;;;;;;;4.20;1.38;;;21.40;64.50;;;;;;5122512;27;43462;-59
2022/10/25 12:22:56;;;;;;;4.30;1.50;;;21.40;64.50;;;;;;5115908;27;43400;-59
2022/10/25 12:25:40;;;;;;;1.80;1.13;;;21.50;64.50;;;;;;5108799;27;43516;-59
2022/10/25 12:28:42;;;;;;;4.40;1.33;;;21.50;64.40;;;;;;5114418;27;43861;-59
2022/10/25 12:31:22;;;;;;;3.45;1.25;;;21.50;64.40;;;;;;5112093;27;43445;-59
2022/10/25 12:33:56;;;;;;;2.93;1.27;;;21.40;64.40;;;;;;5111807;27;43456;-59
2022/10/25 12:36:34;;;;;;;2.90;1.45;;;21.40;65.00;;;;;;5115437;27;43364;-59
2022/10/25 12:39:09;;;;;;;2.25;1.30;;;21.40;64.40;;;;;;5122927;27;43864;-59
2022/10/25 12:41:42;;;;;;;2.08;1.10;;;21.40;64.50;;;;;;5115597;27;43943;-59
2022/10/25 12:44:15;;;;;;;2.20;1.23;;;21.40;64.50;;;;;;5115484;27;43430;-59
2022/10/25 12:47:29;;;;;;;2.72;1.52;;;21.40;64.60;;;;;;5112160;27;43504;-59
2022/10/25 12:50:23;;;;;;;4.60;1.45;;;21.30;64.50;;;;;;5079855;27;43930;-59
2022/10/25 12:53:28;;;;;;;4.13;1.23;;;21.30;65.00;;;;;;5114126;27;43822;-58
2022/10/25 12:56:17;;;;;;;2.53;1.05;;;21.30;65.20;;;;;;5100902;27;43530;-59
2022/10/25 12:59:03;;;;;;;3.53;1.30;;;21.30;65.10;;;;;;5123756;27;43493;-60
2022/10/25 13:01:33;;;;;;;2.88;1.20;;;21.30;65.10;;;;;;5088470;27;44449;-59
2022/10/25 13:04:36;;;;;;;4.13;1.33;;;21.30;64.90;;;;;;5122513;27;44059;-59
2022/10/25 13:07:05;;;;;;;3.78;1.30;;;21.30;64.80;;;;;;5120154;27;43787;-59
2022/10/25 13:09:36;;;;;;;3.03;1.20;;;21.30;64.90;;;;;;5108455;27;43593;-58
2022/10/25 13:12:29;;;;;;;5.30;1.73;;;21.30;64.80;;;;;;5113397;27;43783;-58
2022/10/25 13:14:58;;;;;;;3.75;1.33;;;21.30;64.80;;;;;;5118964;27;43961;-59
2022/10/25 13:17:26;;;;;;;3.30;1.10;;;21.30;64.80;;;;;;5119125;27;43486;-58
2022/10/25 13:20:14;;;;;;;2.15;1.10;;;21.20;64.70;;;;;;5110397;27;43463;-58
2022/10/25 13:22:42;;;;;;;3.08;1.23;;;21.20;64.90;;;;;;5116053;27;44043;-58